sensor_id;sensor_type;location;lat;lon;timestamp;P1;durP1;ratioP1;P2;durP2;ratioP2
84495;SDS011;74855;51.206;17.408;2024-03-29T00:00:11;7.38;;;3.60;;
84495;SDS011;74855;51.206;17.408;2024-03-29T00:05:07;6.47;;;3.40;;
84495;SDS011;74855;51.206;17.408;2024-03-29T00:10:07;6.50;;;3.40;;
84495;SDS011;74855;51.206;17.408;2024-03-29T00:15:03;5.65;;;2.95;;
84495;SDS011;74855;51.206;17.408;2024-03-29T00:19:59;5.82;;;3.05;;
84495;SDS011;74855;51.206;17.408;2024-03-29T00:24:55;8.80;;;4.30;;
84495;SDS011;74855;51.206;17.408;2024-03-29T00:29:52;7.60;;;4.00;;
84495;SDS011;74855;51.206;17.408;2024-03-29T00:34:49;6.53;;;3.25;;
84495;SDS011;74855;51.206;17.408;2024-03-29T00:39:45;6.55;;;3.40;;
84495;SDS011;74855;51.206;17.408;2024-03-29T00:44:41;9.38;;;4.57;;
84495;SDS011;74855;51.206;17.408;2024-03-29T00:49:38;6.63;;;3.95;;
84495;SDS011;74855;51.206;17.408;2024-03-29T00:54:34;7.78;;;4.13;;
84495;SDS011;74855;51.206;17.408;2024-03-29T00:59:30;7.35;;;3.13;;
84495;SDS011;74855;51.206;17.408;2024-03-29T01:04:25;6.50;;;3.25;;
84495;SDS011;74855;51.206;17.408;2024-03-29T01:09:23;8.75;;;3.55;;
84495;SDS011;74855;51.206;17.408;2024-03-29T01:14:19;6.07;;;2.95;;
84495;SDS011;74855;51.206;17.408;2024-03-29T01:19:15;5.18;;;2.20;;
84495;SDS011;74855;51.206;17.408;2024-03-29T01:24:10;6.60;;;2.95;;
84495;SDS011;74855;51.206;17.408;2024-03-29T01:29:07;5.60;;;3.03;;
84495;SDS011;74855;51.206;17.408;2024-03-29T01:34:03;5.32;;;3.17;;
84495;SDS011;74855;51.206;17.408;2024-03-29T01:38:59;6.07;;;3.83;;
84495;SDS011;74855;51.206;17.408;2024-03-29T01:43:54;5.55;;;3.13;;
84495;SDS011;74855;51.206;17.408;2024-03-29T01:48:52;5.20;;;3.38;;
84495;SDS011;74855;51.206;17.408;2024-03-29T01:53:48;6.80;;;3.50;;
84495;SDS011;74855;51.206;17.408;2024-03-29T01:58:45;5.60;;;3.55;;
84495;SDS011;74855;51.206;17.408;2024-03-29T02:03:42;7.10;;;4.88;;
84495;SDS011;74855;51.206;17.408;2024-03-29T02:08:39;5.63;;;3.45;;
84495;SDS011;74855;51.206;17.408;2024-03-29T02:13:35;6.18;;;3.58;;
84495;SDS011;74855;51.206;17.408;2024-03-29T02:18:31;7.53;;;4.18;;
84495;SDS011;74855;51.206;17.408;2024-03-29T02:23:28;5.20;;;3.20;;
84495;SDS011;74855;51.206;17.408;2024-03-29T02:28:29;5.95;;;4.00;;
84495;SDS011;74855;51.206;17.408;2024-03-29T02:33:25;5.45;;;3.88;;
84495;SDS011;74855;51.206;17.408;2024-03-29T02:38:21;6.25;;;4.13;;
84495;SDS011;74855;51.206;17.408;2024-03-29T02:43:17;5.72;;;3.58;;
84495;SDS011;74855;51.206;17.408;2024-03-29T02:48:14;5.28;;;3.05;;
84495;SDS011;74855;51.206;17.408;2024-03-29T02:53:09;6.28;;;3.40;;
84495;SDS011;74855;51.206;17.408;2024-03-29T02:58:05;5.15;;;3.30;;
84495;SDS011;74855;51.206;17.408;2024-03-29T03:03:01;7.47;;;4.88;;
84495;SDS011;74855;51.206;17.408;2024-03-29T03:07:58;7.07;;;4.40;;
84495;SDS011;74855;51.206;17.408;2024-03-29T03:12:53;6.57;;;3.97;;
84495;SDS011;74855;51.206;17.408;2024-03-29T03:17:49;5.22;;;3.03;;
84495;SDS011;74855;51.206;17.408;2024-03-29T03:22:45;5.82;;;3.40;;
84495;SDS011;74855;51.206;17.408;2024-03-29T03:27:42;5.43;;;3.63;;
84495;SDS011;74855;51.206;17.408;2024-03-29T03:32:37;6.90;;;3.90;;
84495;SDS011;74855;51.206;17.408;2024-03-29T03:37:33;6.47;;;4.20;;
84495;SDS011;74855;51.206;17.408;2024-03-29T03:42:29;7.18;;;3.47;;
84495;SDS011;74855;51.206;17.408;2024-03-29T03:47:26;5.45;;;3.58;;
84495;SDS011;74855;51.206;17.408;2024-03-29T03:52:22;5.45;;;3.17;;
84495;SDS011;74855;51.206;17.408;2024-03-29T03:57:17;4.35;;;2.17;;
84495;SDS011;74855;51.206;17.408;2024-03-29T04:02:13;5.20;;;2.90;;
84495;SDS011;74855;51.206;17.408;2024-03-29T04:07:10;4.88;;;3.20;;
84495;SDS011;74855;51.206;17.408;2024-03-29T04:12:06;5.40;;;2.60;;
84495;SDS011;74855;51.206;17.408;2024-03-29T04:17:02;4.88;;;2.70;;
84495;SDS011;74855;51.206;17.408;2024-03-29T04:21:58;4.47;;;2.72;;
84495;SDS011;74855;51.206;17.408;2024-03-29T04:26:55;4.88;;;3.30;;
84495;SDS011;74855;51.206;17.408;2024-03-29T04:31:51;4.78;;;2.80;;
84495;SDS011;74855;51.206;17.408;2024-03-29T04:36:46;4.50;;;2.88;;
84495;SDS011;74855;51.206;17.408;2024-03-29T04:41:42;4.82;;;2.63;;
84495;SDS011;74855;51.206;17.408;2024-03-29T04:46:39;5.35;;;3.38;;
84495;SDS011;74855;51.206;17.408;2024-03-29T04:51:34;5.40;;;2.53;;
84495;SDS011;74855;51.206;17.408;2024-03-29T04:56:30;4.93;;;2.40;;
84495;SDS011;74855;51.206;17.408;2024-03-29T05:01:26;3.95;;;2.67;;
84495;SDS011;74855;51.206;17.408;2024-03-29T05:06:24;5.93;;;3.05;;
84495;SDS011;74855;51.206;17.408;2024-03-29T05:11:20;4.97;;;2.83;;
84495;SDS011;74855;51.206;17.408;2024-03-29T05:16:16;8.18;;;3.17;;
84495;SDS011;74855;51.206;17.408;2024-03-29T05:21:12;7.35;;;3.30;;
84495;SDS011;74855;51.206;17.408;2024-03-29T05:26:09;8.27;;;3.90;;
84495;SDS011;74855;51.206;17.408;2024-03-29T05:31:10;5.00;;;3.05;;
84495;SDS011;74855;51.206;17.408;2024-03-29T05:36:07;5.85;;;3.10;;
84495;SDS011;74855;51.206;17.408;2024-03-29T05:41:03;6.50;;;2.00;;
84495;SDS011;74855;51.206;17.408;2024-03-29T05:46:01;4.47;;;2.47;;
84495;SDS011;74855;51.206;17.408;2024-03-29T05:50:57;5.43;;;3.30;;
84495;SDS011;74855;51.206;17.408;2024-03-29T05:55:54;5.05;;;2.25;;
84495;SDS011;74855;51.206;17.408;2024-03-29T06:00:50;3.80;;;1.90;;
84495;SDS011;74855;51.206;17.408;2024-03-29T06:05:47;5.90;;;2.45;;
84495;SDS011;74855;51.206;17.408;2024-03-29T06:10:42;4.35;;;2.03;;
84495;SDS011;74855;51.206;17.408;2024-03-29T06:15:38;4.50;;;1.80;;
84495;SDS011;74855;51.206;17.408;2024-03-29T06:20:34;4.63;;;1.83;;
84495;SDS011;74855;51.206;17.408;2024-03-29T06:25:31;5.53;;;2.13;;
84495;SDS011;74855;51.206;17.408;2024-03-29T06:30:26;4.72;;;2.13;;
84495;SDS011;74855;51.206;17.408;2024-03-29T06:35:22;4.88;;;2.47;;
84495;SDS011;74855;51.206;17.408;2024-03-29T06:40:18;5.18;;;2.63;;
84495;SDS011;74855;51.206;17.408;2024-03-29T06:45:15;4.20;;;2.40;;
84495;SDS011;74855;51.206;17.408;2024-03-29T06:50:11;5.30;;;1.90;;
84495;SDS011;74855;51.206;17.408;2024-03-29T06:55:06;4.43;;;1.88;;
84495;SDS011;74855;51.206;17.408;2024-03-29T07:00:03;5.05;;;2.42;;
84495;SDS011;74855;51.206;17.408;2024-03-29T07:05:00;4.57;;;1.83;;
84495;SDS011;74855;51.206;17.408;2024-03-29T07:09:56;4.95;;;2.05;;
84495;SDS011;74855;51.206;17.408;2024-03-29T07:14:52;6.13;;;1.95;;
84495;SDS011;74855;51.206;17.408;2024-03-29T07:19:47;5.07;;;1.75;;
84495;SDS011;74855;51.206;17.408;2024-03-29T07:24:44;3.95;;;1.55;;
84495;SDS011;74855;51.206;17.408;2024-03-29T07:29:40;6.15;;;1.80;;
84495;SDS011;74855;51.206;17.408;2024-03-29T07:34:36;4.47;;;1.48;;
84495;SDS011;74855;51.206;17.408;2024-03-29T07:39:31;5.38;;;1.85;;
84495;SDS011;74855;51.206;17.408;2024-03-29T07:44:29;3.60;;;1.52;;
84495;SDS011;74855;51.206;17.408;2024-03-29T07:49:24;4.30;;;1.80;;
84495;SDS011;74855;51.206;17.408;2024-03-29T07:54:20;4.60;;;1.90;;
84495;SDS011;74855;51.206;17.408;2024-03-29T07:59:16;5.20;;;1.85;;
84495;SDS011;74855;51.206;17.408;2024-03-29T08:04:13;5.13;;;1.98;;
84495;SDS011;74855;51.206;17.408;2024-03-29T08:09:09;4.60;;;1.75;;
84495;SDS011;74855;51.206;17.408;2024-03-29T08:14:05;7.10;;;3.75;;
84495;SDS011;74855;51.206;17.408;2024-03-29T08:19:01;5.07;;;2.38;;
84495;SDS011;74855;51.206;17.408;2024-03-29T08:23:58;5.45;;;2.00;;
84495;SDS011;74855;51.206;17.408;2024-03-29T08:28:53;5.03;;;1.20;;
84495;SDS011;74855;51.206;17.408;2024-03-29T08:33:49;4.82;;;1.75;;
84495;SDS011;74855;51.206;17.408;2024-03-29T08:38:45;4.88;;;1.75;;
84495;SDS011;74855;51.206;17.408;2024-03-29T08:43:42;4.53;;;1.77;;
84495;SDS011;74855;51.206;17.408;2024-03-29T08:48:39;5.90;;;1.55;;
84495;SDS011;74855;51.206;17.408;2024-03-29T08:53:34;5.47;;;1.70;;
84495;SDS011;74855;51.206;17.408;2024-03-29T08:58:30;4.22;;;1.40;;
84495;SDS011;74855;51.206;17.408;2024-03-29T09:03:27;4.47;;;1.10;;
84495;SDS011;74855;51.206;17.408;2024-03-29T09:13:22;4.57;;;1.85;;
84495;SDS011;74855;51.206;17.408;2024-03-29T09:18:17;6.53;;;1.33;;
84495;SDS011;74855;51.206;17.408;2024-03-29T09:23:14;5.00;;;2.03;;
84495;SDS011;74855;51.206;17.408;2024-03-29T09:28:10;4.35;;;1.33;;
84495;SDS011;74855;51.206;17.408;2024-03-29T09:33:05;4.50;;;1.23;;
84495;SDS011;74855;51.206;17.408;2024-03-29T09:38:02;6.03;;;1.48;;
84495;SDS011;74855;51.206;17.408;2024-03-29T09:43:00;5.57;;;1.23;;
84495;SDS011;74855;51.206;17.408;2024-03-29T09:47:56;3.58;;;1.20;;
84495;SDS011;74855;51.206;17.408;2024-03-29T09:52:53;4.57;;;1.42;;
84495;SDS011;74855;51.206;17.408;2024-03-29T09:57:50;3.67;;;1.10;;
84495;SDS011;74855;51.206;17.408;2024-03-29T10:02:47;6.28;;;1.35;;
84495;SDS011;74855;51.206;17.408;2024-03-29T10:12:40;3.80;;;1.27;;
84495;SDS011;74855;51.206;17.408;2024-03-29T10:17:36;5.53;;;1.20;;
84495;SDS011;74855;51.206;17.408;2024-03-29T10:22:40;4.38;;;1.42;;
84495;SDS011;74855;51.206;17.408;2024-03-29T10:27:38;4.47;;;1.10;;
84495;SDS011;74855;51.206;17.408;2024-03-29T10:32:34;4.10;;;0.75;;
84495;SDS011;74855;51.206;17.408;2024-03-29T10:37:32;4.03;;;1.20;;
84495;SDS011;74855;51.206;17.408;2024-03-29T10:42:29;3.13;;;0.93;;
84495;SDS011;74855;51.206;17.408;2024-03-29T10:47:26;5.88;;;1.30;;
84495;SDS011;74855;51.206;17.408;2024-03-29T10:52:27;4.85;;;1.20;;
84495;SDS011;74855;51.206;17.408;2024-03-29T10:57:23;3.85;;;0.82;;
84495;SDS011;74855;51.206;17.408;2024-03-29T11:02:23;3.78;;;0.95;;
84495;SDS011;74855;51.206;17.408;2024-03-29T11:07:26;3.10;;;0.93;;
84495;SDS011;74855;51.206;17.408;2024-03-29T11:12:22;3.70;;;1.17;;
84495;SDS011;74855;51.206;17.408;2024-03-29T11:17:20;3.25;;;1.00;;
84495;SDS011;74855;51.206;17.408;2024-03-29T11:22:17;4.07;;;0.98;;
84495;SDS011;74855;51.206;17.408;2024-03-29T11:27:13;5.53;;;1.00;;
84495;SDS011;74855;51.206;17.408;2024-03-29T11:32:09;3.90;;;0.90;;
84495;SDS011;74855;51.206;17.408;2024-03-29T11:37:09;4.25;;;1.10;;
84495;SDS011;74855;51.206;17.408;2024-03-29T11:42:06;3.38;;;1.00;;
84495;SDS011;74855;51.206;17.408;2024-03-29T11:47:01;3.70;;;1.10;;
84495;SDS011;74855;51.206;17.408;2024-03-29T11:52:01;4.60;;;1.17;;
84495;SDS011;74855;51.206;17.408;2024-03-29T11:57:00;7.55;;;1.92;;
84495;SDS011;74855;51.206;17.408;2024-03-29T12:01:55;4.85;;;0.82;;
84495;SDS011;74855;51.206;17.408;2024-03-29T12:06:52;5.72;;;0.90;;
